createdAt,value
2018-09-11T00:00:58.712Z,94.70
2018-09-11T00:05:42.683Z,95.00
2018-09-11T00:10:26.689Z,95.30
2018-09-11T00:15:10.596Z,96.10
2018-09-11T00:19:54.312Z,95.90
2018-09-11T00:24:38.104Z,96.30
2018-09-11T00:29:21.829Z,96.60
2018-09-11T00:34:05.670Z,96.70
2018-09-11T00:38:49.448Z,97.30
2018-09-11T00:43:33.388Z,96.90
2018-09-11T00:48:17.205Z,97.60
2018-09-11T00:53:01.125Z,97.90
2018-09-11T00:57:44.786Z,98.20
2018-09-11T01:02:28.585Z,98.40
2018-09-11T01:07:12.394Z,98.60
2018-09-11T01:11:56.304Z,98.80
2018-09-11T01:16:40.988Z,98.70
2018-09-11T01:21:24.758Z,98.90
2018-09-11T01:26:08.575Z,98.90
2018-09-11T01:30:52.204Z,98.70
2018-09-11T01:35:35.888Z,98.80
2018-09-11T01:40:19.676Z,99.00
2018-09-11T01:45:03.456Z,98.90
2018-09-11T01:49:47.421Z,98.80
2018-09-11T01:54:31.174Z,99.20
2018-09-11T01:59:14.912Z,99.10
2018-09-11T02:03:58.674Z,99.00
2018-09-11T02:08:42.448Z,99.40
2018-09-11T02:13:26.245Z,99.60
2018-09-11T02:18:10.000Z,99.90
2018-09-11T02:22:53.810Z,99.90
2018-09-11T02:27:38.670Z,99.90
2018-09-11T02:32:22.345Z,99.90
2018-09-11T02:37:06.055Z,99.90
2018-09-11T02:41:49.761Z,99.90
2018-09-11T02:46:33.890Z,99.90
2018-09-11T02:51:17.667Z,99.90
2018-09-11T02:56:01.600Z,99.90
2018-09-11T03:00:45.198Z,99.90
2018-09-11T03:05:28.978Z,99.90
2018-09-11T03:10:12.739Z,99.90
2018-09-11T03:14:56.520Z,99.90
2018-09-11T03:19:40.209Z,99.90
2018-09-11T03:24:23.856Z,99.90
2018-09-11T03:29:08.156Z,99.90
2018-09-11T03:33:51.847Z,99.90
2018-09-11T03:38:35.680Z,99.90
2018-09-11T03:43:19.475Z,99.90
2018-09-11T03:48:03.230Z,99.90
2018-09-11T03:52:47.014Z,99.90
2018-09-11T03:57:30.811Z,99.90
2018-09-11T04:02:14.512Z,99.90
2018-09-11T04:06:58.407Z,99.90
2018-09-11T04:11:42.855Z,99.90
2018-09-11T04:16:26.579Z,99.90
2018-09-11T04:21:10.271Z,99.90
2018-09-11T04:25:55.070Z,99.90
2018-09-11T04:30:38.793Z,99.90
2018-09-11T04:35:22.609Z,99.90
2018-09-11T04:40:07.388Z,99.90
2018-09-11T04:44:51.202Z,99.90
2018-09-11T04:49:35.134Z,99.90
2018-09-11T04:54:18.868Z,99.90
2018-09-11T04:59:02.558Z,99.90
2018-09-11T05:03:46.450Z,99.90
2018-09-11T05:08:30.582Z,99.90
2018-09-11T05:13:14.251Z,99.90
2018-09-11T05:17:58.092Z,99.90
2018-09-11T05:22:42.127Z,99.90
2018-09-11T05:27:25.869Z,99.90
2018-09-11T05:32:09.491Z,99.90
2018-09-11T05:36:53.235Z,99.90
2018-09-11T05:41:37.664Z,99.90
2018-09-11T05:46:22.188Z,99.90
2018-09-11T05:51:06.333Z,99.90
2018-09-11T05:55:50.064Z,99.90
2018-09-11T06:00:33.858Z,99.90
2018-09-11T06:05:17.543Z,99.90
2018-09-11T06:10:01.772Z,99.90
2018-09-11T06:14:45.625Z,99.90
2018-09-11T06:19:29.506Z,99.90
2018-09-11T06:24:13.227Z,99.90
2018-09-11T06:28:57.399Z,99.90
2018-09-11T06:33:41.220Z,99.90
2018-09-11T06:38:24.896Z,99.90
2018-09-11T06:43:08.746Z,99.90
2018-09-11T06:47:52.574Z,99.90
2018-09-11T06:52:36.440Z,99.90
2018-09-11T06:57:20.164Z,99.90
2018-09-11T07:02:03.911Z,99.90
2018-09-11T07:06:47.730Z,99.90
2018-09-11T07:11:31.559Z,99.90
2018-09-11T07:16:15.294Z,99.90
2018-09-11T07:20:58.995Z,99.90
2018-09-11T07:25:42.700Z,99.90
2018-09-11T07:30:26.590Z,99.90
2018-09-11T07:35:10.258Z,99.90
2018-09-11T07:39:53.992Z,99.90
2018-09-11T07:44:37.804Z,99.90
2018-09-11T07:49:21.620Z,99.90
2018-09-11T07:54:05.246Z,99.80
2018-09-11T07:58:49.021Z,99.10
2018-09-11T08:03:32.770Z,98.30
2018-09-11T08:08:16.521Z,97.70
2018-09-11T08:13:00.195Z,96.60
2018-09-11T08:17:44.050Z,95.20
2018-09-11T08:22:27.898Z,94.00
2018-09-11T08:27:11.805Z,94.20
2018-09-11T08:31:55.642Z,94.00
2018-09-11T08:36:39.365Z,92.80
2018-09-11T08:41:23.217Z,92.30
2018-09-11T08:46:07.769Z,92.20
2018-09-11T08:50:51.556Z,91.40
2018-09-11T08:55:35.544Z,91.80
2018-09-11T09:00:19.563Z,91.10
2018-09-11T09:05:03.335Z,91.10
2018-09-11T09:09:47.262Z,90.50
2018-09-11T09:14:31.063Z,90.30
2018-09-11T09:19:14.905Z,87.10
2018-09-11T09:23:58.666Z,88.30
2018-09-11T09:28:42.503Z,85.50
2018-09-11T09:33:26.225Z,84.10
2018-09-11T09:38:09.896Z,83.10
2018-09-11T09:42:55.247Z,83.70
2018-09-11T09:47:39.081Z,80.90
2018-09-11T09:52:22.757Z,81.20
2018-09-11T09:57:06.555Z,80.50
2018-09-11T10:01:55.726Z,80.70
2018-09-11T10:06:39.472Z,79.70
2018-09-11T10:11:23.298Z,76.30
2018-09-11T10:16:07.075Z,75.90
2018-09-11T10:20:50.829Z,78.20
2018-09-11T10:25:34.861Z,75.30
2018-09-11T10:30:18.809Z,76.70
2018-09-11T10:35:02.690Z,76.00
2018-09-11T10:39:46.678Z,76.10
2018-09-11T10:44:30.617Z,74.40
2018-09-11T10:49:14.340Z,73.80
2018-09-11T10:53:58.107Z,71.60
2018-09-11T10:58:42.081Z,69.10
2018-09-11T11:03:25.977Z,67.30
2018-09-11T11:08:09.690Z,63.10
2018-09-11T11:12:53.410Z,62.80
2018-09-11T11:17:37.227Z,61.20
2018-09-11T11:22:20.983Z,62.60
2018-09-11T11:27:04.764Z,61.80
2018-09-11T11:31:48.867Z,61.00
2018-09-11T11:36:32.896Z,59.80
2018-09-11T11:41:16.686Z,60.60
2018-09-11T11:46:00.566Z,61.70
2018-09-11T11:50:44.516Z,58.40
2018-09-11T11:55:28.512Z,59.50
2018-09-11T12:00:12.485Z,58.00
2018-09-11T12:04:56.421Z,57.90
2018-09-11T12:09:40.177Z,58.60
2018-09-11T12:14:23.902Z,58.50
2018-09-11T12:19:08.493Z,59.00
2018-09-11T12:23:52.273Z,58.30
2018-09-11T12:28:36.401Z,58.20
2018-09-11T12:33:20.232Z,56.00
2018-09-11T12:38:04.036Z,57.50
2018-09-11T12:42:47.884Z,58.30
2018-09-11T12:47:32.012Z,55.70
2018-09-11T12:52:15.533Z,55.40
2018-09-11T12:56:59.390Z,56.50
2018-09-11T13:01:43.066Z,57.80
2018-09-11T13:06:26.892Z,57.20
2018-09-11T13:11:10.828Z,57.30
2018-09-11T13:15:54.778Z,58.30
2018-09-11T13:20:38.756Z,57.70
2018-09-11T13:25:22.796Z,57.10
2018-09-11T13:30:07.276Z,57.10
2018-09-11T13:34:51.077Z,56.20
2018-09-11T13:39:35.040Z,55.00
2018-09-11T13:44:18.838Z,54.80
2018-09-11T13:49:02.627Z,53.10
2018-09-11T13:53:46.444Z,53.30
2018-09-11T13:58:30.221Z,50.70
2018-09-11T14:03:14.360Z,49.60
2018-09-11T14:07:58.509Z,50.80
2018-09-11T14:12:42.339Z,52.20
2018-09-11T14:17:26.124Z,53.10
2018-09-11T14:22:09.961Z,52.60
2018-09-11T14:26:53.914Z,53.90
2018-09-11T14:31:38.158Z,53.30
2018-09-11T14:36:22.185Z,53.10
2018-09-11T14:41:06.093Z,53.60
2018-09-11T14:45:50.378Z,53.40
2018-09-11T14:50:34.156Z,54.30
2018-09-11T14:55:17.776Z,51.30
2018-09-11T15:00:01.643Z,50.00
2018-09-11T15:04:45.389Z,49.40
2018-09-11T15:09:29.239Z,48.60
2018-09-11T15:14:13.161Z,51.10
2018-09-11T15:18:57.054Z,51.60
2018-09-11T15:23:41.854Z,50.70
2018-09-11T15:28:26.030Z,50.50
2018-09-11T15:33:12.155Z,50.30
2018-09-11T15:37:56.044Z,51.00
2018-09-11T15:42:46.915Z,51.10
2018-09-11T15:47:30.898Z,51.90
2018-09-11T15:52:14.633Z,51.60
2018-09-11T15:56:58.512Z,52.30
2018-09-11T16:01:43.712Z,52.40
2018-09-11T16:06:29.047Z,53.80
2018-09-11T16:11:15.885Z,54.20
2018-09-11T16:15:59.750Z,54.80
2018-09-11T16:20:43.695Z,55.20
2018-09-11T16:30:22.783Z,55.50
2018-09-11T16:35:06.764Z,54.80
2018-09-11T16:44:34.238Z,52.40
2018-09-11T16:49:18.103Z,51.70
2018-09-11T16:54:02.563Z,53.50
2018-09-11T16:58:46.332Z,53.60
2018-09-11T17:03:30.216Z,53.90
2018-09-11T17:08:14.038Z,53.50
2018-09-11T17:12:57.843Z,54.20
2018-09-11T17:18:02.651Z,54.40
2018-09-11T17:22:47.840Z,54.00
2018-09-11T17:27:37.152Z,54.30
2018-09-11T17:32:21.107Z,54.80
2018-09-11T17:37:05.145Z,55.50
2018-09-11T17:41:50.228Z,56.20
2018-09-11T17:46:34.829Z,56.60
2018-09-11T17:51:19.303Z,57.60
2018-09-11T17:56:12.931Z,59.50
2018-09-11T18:01:00.711Z,58.80
2018-09-11T18:05:57.702Z,60.40
2018-09-11T18:10:41.878Z,60.60
2018-09-11T18:15:27.193Z,59.90
2018-09-11T18:20:14.991Z,60.20
2018-09-11T18:25:28.433Z,60.00
2018-09-11T18:47:35.314Z,65.40
2018-09-11T18:52:26.095Z,66.90
2018-09-11T18:57:22.929Z,67.70
2018-09-11T19:02:13.130Z,68.10
2018-09-11T19:06:58.614Z,69.90
2018-09-11T19:11:43.087Z,70.30
2018-09-11T19:16:27.978Z,71.00
2018-09-11T19:21:12.239Z,70.30
2018-09-11T19:25:56.383Z,70.20
2018-09-11T19:30:40.767Z,70.10
2018-09-11T19:35:24.925Z,70.30
2018-09-11T19:40:08.923Z,70.60
2018-09-11T19:44:54.925Z,71.30
2018-09-11T19:49:44.208Z,71.50
2018-09-11T19:54:28.475Z,71.50
2018-09-11T19:59:12.592Z,71.70
2018-09-11T20:03:56.444Z,71.90
2018-09-11T20:08:44.217Z,72.10
2018-09-11T20:13:29.226Z,72.20
2018-09-11T20:18:13.647Z,72.40
2018-09-11T20:22:57.583Z,72.80
2018-09-11T20:27:41.438Z,73.20
2018-09-11T20:32:25.781Z,73.10
2018-09-11T20:37:10.077Z,73.60
2018-09-11T20:41:54.117Z,73.70
2018-09-11T20:46:38.304Z,73.70
2018-09-11T20:51:22.350Z,73.20
2018-09-11T20:56:06.439Z,73.10
2018-09-11T21:00:50.643Z,72.70
2018-09-11T21:05:35.093Z,73.70
2018-09-11T21:10:18.822Z,73.00
2018-09-11T21:15:02.961Z,73.70
2018-09-11T21:19:47.013Z,73.40
2018-09-11T21:24:32.242Z,73.50
2018-09-11T21:29:16.687Z,73.60
2018-09-11T21:34:00.898Z,73.70
2018-09-11T21:38:45.091Z,74.10
2018-09-11T21:43:29.196Z,74.20
2018-09-11T21:48:13.154Z,74.20
2018-09-11T21:52:57.411Z,74.20
2018-09-11T21:57:41.916Z,74.70
2018-09-11T22:02:25.853Z,75.10
2018-09-11T22:07:09.947Z,74.90
2018-09-11T22:11:53.644Z,75.30
2018-09-11T22:16:37.854Z,75.70
2018-09-11T22:21:21.772Z,75.20
2018-09-11T22:26:05.472Z,76.00
2018-09-11T22:30:49.324Z,75.80
2018-09-11T22:35:33.157Z,75.70
2018-09-11T22:40:16.913Z,75.80
2018-09-11T22:45:00.706Z,75.80
2018-09-11T22:49:44.330Z,75.90
2018-09-11T22:54:28.124Z,76.10
2018-09-11T22:59:12.016Z,76.20
2018-09-11T23:03:56.152Z,75.70
2018-09-11T23:08:39.967Z,75.70
2018-09-11T23:13:23.868Z,75.90
2018-09-11T23:18:08.593Z,76.60
2018-09-11T23:22:52.486Z,76.90
2018-09-11T23:27:36.333Z,77.20
2018-09-11T23:32:20.248Z,77.10
2018-09-11T23:37:04.243Z,77.20
2018-09-11T23:41:48.519Z,77.50
2018-09-11T23:46:32.551Z,77.60
2018-09-11T23:51:16.394Z,77.80
2018-09-11T23:56:00.372Z,77.90
